Cannon Air Force Base
KCVS : now visible

Airfield :











YOU CAN JOIN US ON...

 
LOGIN :

Register | Disclaimer

   EN    FR    IT 

 









Legend :    VFR   Marginal VFR   IFR   Intensive IFR   Very Intensive IFR
Visi :
Ceiling :
>= 8 km
>= 3000ft
5 to 8 km
1000 to 3000 ft
1500m to 5 km
500 to 1000 ft
800 to 1500m
200 to 500 ft
< 800m
< 200 ft
Symbols :   Thunderstorms  Fog  Heavy snow  Heavy precipitations  Wind > 20 kt






- Airport Elevation : 4295 ft


KCVS - Cannon Air Force Base

METAR N/A
TAF TAF KCVS
Valid from the 20 at 18:00 until the 22 at 00:00 UTC


201800Z 2018/2124 31010G15KT 9999 FEW200 QNH2983INS
BECMG 2020/2021 35010G15KT 9999 SCT150 QNH2978INS
BECMG 2103/2104 VRB06KT 9999 SCT150 QNH2982INS
BECMG 2110/2111 03015G35KT 9999 SCT150 QNH2987INS
BECMG 2115/2116 05012G20KT 9999 FEW120 QNH3008INS TX39/2022Z TN20/2111Z
KZAB FIR / North America



MET'MAP, your aeronautical weather chart ! - Copyright ORBIFLY December 2007 - Disclaimer

ORBIFLY MET'MAP TEAM :

Programming & Development : Alexandra Zaïnal
Concept & original design : Baudouin d'Aumeries
Assistance for programming : Marc-Olivier Méhu
Technical & hardware support : Manuel Goepfert

Contact : metmap@orbifly.com




SOURCES & CREDITS :

   NOAA       Earth
Advisory